createdAt,value
2022-11-28T00:03:14.902Z,81.30
2022-11-28T00:08:19.654Z,75.40
2022-11-28T00:13:23.416Z,61.70
2022-11-28T00:27:03.874Z,37.60
2022-11-28T00:38:57.797Z,37.30
2022-11-28T00:51:26.651Z,25.90
2022-11-28T00:56:38.365Z,18.50
2022-11-28T01:08:50.633Z,27.70
2022-11-28T01:14:00.720Z,45.10
2022-11-28T01:19:05.544Z,34.30
2022-11-28T01:24:10.517Z,30.30
2022-11-28T01:29:14.334Z,11.20
2022-11-28T01:35:08.435Z,25.80
2022-11-28T01:40:13.794Z,12.40
2022-11-28T01:45:32.373Z,25.60
2022-11-28T01:50:37.929Z,19.40
2022-11-28T02:04:24.202Z,24.40
2022-11-28T02:09:27.755Z,13.70
2022-11-28T02:15:32.647Z,20.10
2022-11-28T02:20:54.841Z,25.80
2022-11-28T02:26:33.611Z,28.00
2022-11-28T02:32:25.223Z,19.80
2022-11-28T02:44:52.772Z,29.30
2022-11-28T02:50:13.898Z,18.30
2022-11-28T02:59:50.105Z,11.40
2022-11-28T03:05:41.175Z,13.10
2022-11-28T03:11:22.023Z,13.80
2022-11-28T03:16:34.713Z,11.20
2022-11-28T03:21:59.678Z,11.10
2022-11-28T03:27:18.771Z,10.90
2022-11-28T03:32:32.352Z,17.70
2022-11-28T03:37:46.489Z,9.40
2022-11-28T03:42:59.113Z,11.80
2022-11-28T03:48:40.322Z,15.10
2022-11-28T03:53:51.933Z,16.70
2022-11-28T03:59:04.587Z,14.30
2022-11-28T04:04:23.542Z,14.30
2022-11-28T04:09:46.142Z,16.40
2022-11-28T04:16:13.278Z,12.80
2022-11-28T04:21:31.440Z,18.00
2022-11-28T04:26:54.244Z,14.80
2022-11-28T04:33:20.051Z,7.00
2022-11-28T04:38:28.734Z,17.40
2022-11-28T04:54:24.370Z,10.50
2022-11-28T04:59:32.037Z,7.50
2022-11-28T05:04:37.591Z,7.80
2022-11-28T05:09:41.201Z,9.90
2022-11-28T05:14:45.061Z,37.40
2022-11-28T05:19:48.849Z,10.70
2022-11-28T05:24:53.005Z,20.90
2022-11-28T05:29:56.622Z,7.20
2022-11-28T05:35:00.260Z,12.20
2022-11-28T05:40:05.173Z,9.80
2022-11-28T05:45:09.522Z,13.00
2022-11-28T05:50:13.202Z,11.00
2022-11-28T05:55:17.227Z,11.30
2022-11-28T06:00:21.882Z,12.20
2022-11-28T06:05:41.480Z,13.00
2022-11-28T06:10:45.739Z,9.10
2022-11-28T06:15:49.489Z,12.80
2022-11-28T06:20:52.990Z,13.40
2022-11-28T06:25:56.813Z,7.40
2022-11-28T06:39:47.217Z,15.60
2022-11-28T06:50:41.320Z,15.10
2022-11-28T07:02:56.235Z,47.10
2022-11-28T07:08:01.246Z,27.40
2022-11-28T07:13:05.707Z,15.10
2022-11-28T07:18:09.568Z,13.20
2022-11-28T07:46:11.989Z,17.60
2022-11-28T07:51:42.645Z,18.60
2022-11-28T07:58:15.827Z,18.90
2022-11-28T08:03:19.614Z,20.60
2022-11-28T08:29:18.169Z,16.80
2022-11-28T08:34:47.498Z,22.20
2022-11-28T08:39:51.414Z,14.00
2022-11-28T08:45:45.420Z,29.40
2022-11-28T08:57:39.228Z,13.90
2022-11-28T09:02:43.320Z,8.50
2022-11-28T09:07:47.246Z,21.70
2022-11-28T09:12:52.601Z,20.50
2022-11-28T09:17:56.299Z,11.50
2022-11-28T09:23:00.127Z,13.30
2022-11-28T09:35:11.967Z,7.80
2022-11-28T09:40:26.154Z,10.30
2022-11-28T09:55:55.250Z,9.10
2022-11-28T10:01:11.417Z,10.40
2022-11-28T10:06:48.107Z,13.80
2022-11-28T10:12:07.551Z,17.30
2022-11-28T10:17:23.551Z,17.90
2022-11-28T10:32:43.640Z,8.40
2022-11-28T10:37:46.734Z,26.10
2022-11-28T10:43:33.277Z,27.70
2022-11-28T10:49:28.799Z,27.50
2022-11-28T10:55:02.060Z,21.00
2022-11-28T11:00:19.574Z,18.20
2022-11-28T11:05:47.127Z,26.50
2022-11-28T11:11:31.946Z,32.30
2022-11-28T11:17:51.598Z,20.50
2022-11-28T11:23:00.991Z,19.00
2022-11-28T11:35:45.772Z,19.30
2022-11-28T11:41:29.193Z,13.20
2022-11-28T11:47:01.652Z,17.20
2022-11-28T11:53:57.019Z,22.50
2022-11-28T11:59:05.508Z,48.40
2022-11-28T12:04:45.005Z,30.30
2022-11-28T12:19:25.051Z,16.00
2022-11-28T12:25:23.456Z,21.90
2022-11-28T12:45:18.446Z,34.20
2022-11-28T12:50:53.837Z,41.10
2022-11-28T13:06:40.473Z,25.00
2022-11-28T13:12:27.684Z,42.80
2022-11-28T13:18:08.636Z,34.10
2022-11-28T13:23:41.729Z,61.10
2022-11-28T13:41:43.306Z,95.90
2022-11-28T13:57:39.601Z,201.70
2022-11-28T14:43:25.047Z,50.40
2022-11-28T14:55:50.412Z,63.50
2022-11-28T15:08:02.023Z,59.40
2022-11-28T15:13:27.528Z,92.00
2022-11-28T15:18:33.597Z,86.50
2022-11-28T15:23:41.622Z,82.80
2022-11-28T15:28:45.962Z,131.40
2022-11-28T15:33:51.309Z,190.80
2022-11-28T15:38:57.380Z,185.50
2022-11-28T15:58:57.557Z,112.30
2022-11-28T16:11:11.266Z,57.70
2022-11-28T16:16:41.343Z,54.40
2022-11-28T16:21:52.941Z,55.20
2022-11-28T16:27:04.073Z,42.70
2022-11-28T16:32:42.059Z,49.10
2022-11-28T16:37:46.280Z,70.10
2022-11-28T16:42:59.428Z,97.80
2022-11-28T16:48:09.273Z,86.40
2022-11-28T16:53:45.362Z,40.20
2022-11-28T16:59:14.061Z,48.30
2022-11-28T17:04:23.542Z,54.60
2022-11-28T17:09:27.710Z,101.70
2022-11-28T17:14:32.427Z,94.50
2022-11-28T17:19:36.899Z,52.60
2022-11-28T17:24:41.288Z,40.50
2022-11-28T17:29:45.396Z,35.80
2022-11-28T17:34:49.648Z,43.00
2022-11-28T17:40:12.855Z,63.90
2022-11-28T17:45:17.245Z,55.90
2022-11-28T17:50:21.255Z,38.90
2022-11-28T18:02:33.633Z,53.10
2022-11-28T18:07:37.519Z,55.40
2022-11-28T18:13:10.916Z,32.10
2022-11-28T18:18:41.225Z,40.00
2022-11-28T18:23:53.667Z,44.00
2022-11-28T18:29:00.450Z,37.90
2022-11-28T18:34:08.771Z,52.20
2022-11-28T18:39:16.085Z,38.50
2022-11-28T18:44:20.684Z,38.60
2022-11-28T18:49:24.944Z,24.50
2022-11-28T18:54:31.526Z,34.70
2022-11-28T18:59:36.857Z,24.60
2022-11-28T19:04:41.364Z,59.80
2022-11-28T19:09:46.229Z,40.50
2022-11-28T19:14:51.694Z,48.60
2022-11-28T19:19:57.963Z,40.70
2022-11-28T19:25:04.711Z,29.40
2022-11-28T19:30:09.900Z,48.40
2022-11-28T19:35:14.691Z,33.10
2022-11-28T19:40:19.657Z,38.60
2022-11-28T19:45:25.375Z,35.70
2022-11-28T19:50:30.032Z,30.60
2022-11-28T19:55:37.559Z,16.20
2022-11-28T20:00:42.877Z,46.40
2022-11-28T20:05:47.274Z,34.30
2022-11-28T20:10:51.971Z,36.00
2022-11-28T20:15:56.464Z,27.40
2022-11-28T20:21:10.910Z,56.70
2022-11-28T20:26:17.761Z,45.40
2022-11-28T20:31:35.877Z,41.20
2022-11-28T20:36:41.330Z,34.90
2022-11-28T20:41:45.385Z,27.40
2022-11-28T20:46:50.959Z,42.70
2022-11-28T20:51:54.954Z,52.00
2022-11-28T21:02:24.956Z,40.60
2022-11-28T21:07:29.887Z,23.40
2022-11-28T21:12:34.316Z,26.50
2022-11-28T21:17:38.273Z,38.10
2022-11-28T21:22:42.174Z,38.80
2022-11-28T21:42:03.463Z,22.90
2022-11-28T21:47:59.569Z,19.00
2022-11-28T21:53:03.579Z,23.90
2022-11-28T22:12:48.990Z,18.20
2022-11-28T22:18:17.591Z,25.80
2022-11-28T22:32:05.273Z,18.60
2022-11-28T22:37:09.968Z,19.60
2022-11-28T22:43:00.877Z,21.00
2022-11-28T22:48:05.527Z,15.40
2022-11-28T22:53:15.391Z,22.30
2022-11-28T22:58:19.101Z,19.00
2022-11-28T23:03:22.950Z,21.40
2022-11-28T23:08:30.552Z,25.10
2022-11-28T23:20:45.946Z,24.30
2022-11-28T23:26:41.765Z,21.10
2022-11-28T23:31:47.408Z,20.40
2022-11-28T23:37:40.283Z,16.40
2022-11-28T23:42:44.110Z,22.90
2022-11-28T23:48:02.850Z,19.00
2022-11-28T23:53:06.696Z,20.80
2022-11-28T23:58:10.442Z,22.60
